Northeast, Indiana
Current Conditions -  °F | °C
As of 3:12 AM on Tuesday 27 Jan 2015 (Local Time) from KBMG Reporting Station
Haze Haze  
Wind Chill: 27°   Ceiling: 1900
Heat Index: 27°   Visibility: 3mi
Dew Point: 26°   Wind: 0mph
Humidity: 96%   Direction: NA
Pressure: 29.9"   Gusts: NA
Location:  38.6433°N, 86.4481°W
Report Text: KBMG 270812Z AUTO 00000KT 3SM BR OVC019 M03/M03 A2990 RMK AO2 SNE09 P0000 T10281033
Loading
Personal Weather Stations






























Interactive Weather Map New forecast layout! Learn more

10-Day Weather Forecast

Advertisements
Track Severe Weather on mobile